createdAt,value
2022-12-27T00:02:13.013Z,2.00
2022-12-27T00:04:42.487Z,1.20
2022-12-27T00:07:11.873Z,1.67
2022-12-27T00:09:41.525Z,1.15
2022-12-27T00:12:11.138Z,1.40
2022-12-27T00:14:41.038Z,2.00
2022-12-27T00:17:12.284Z,1.30
2022-12-27T00:19:41.789Z,1.45
2022-12-27T00:22:11.223Z,2.00
2022-12-27T00:24:41.039Z,1.23
2022-12-27T00:27:11.178Z,1.58
2022-12-27T00:29:40.763Z,1.42
2022-12-27T00:32:14.844Z,1.45
2022-12-27T00:34:44.691Z,1.40
2022-12-27T00:37:14.875Z,1.08
2022-12-27T00:39:44.469Z,1.10
2022-12-27T00:42:14.182Z,1.67
2022-12-27T00:44:43.769Z,1.45
2022-12-27T00:47:14.882Z,1.38
2022-12-27T00:49:44.110Z,3.05
2022-12-27T00:52:13.451Z,2.15
2022-12-27T00:54:42.856Z,1.25
2022-12-27T00:57:11.989Z,1.63
2022-12-27T00:59:41.417Z,2.85
2022-12-27T01:02:11.290Z,1.60
2022-12-27T01:04:44.091Z,1.13
2022-12-27T01:07:13.872Z,1.55
2022-12-27T01:09:45.142Z,1.15
2022-12-27T01:12:14.449Z,0.95
2022-12-27T01:14:44.196Z,1.50
2022-12-27T01:17:13.961Z,1.98
2022-12-27T01:19:46.735Z,1.30
2022-12-27T01:22:16.204Z,1.80
2022-12-27T01:24:46.276Z,1.88
2022-12-27T01:27:16.440Z,1.40
2022-12-27T01:29:48.287Z,1.40
2022-12-27T01:32:18.396Z,2.70
2022-12-27T01:34:51.549Z,1.23
2022-12-27T01:37:21.571Z,1.45
2022-12-27T01:39:51.480Z,1.92
2022-12-27T01:42:39.475Z,1.10
2022-12-27T01:45:19.700Z,2.47
2022-12-27T01:48:01.577Z,1.40
2022-12-27T01:50:36.252Z,1.63
2022-12-27T01:53:14.339Z,1.63
2022-12-27T01:55:48.559Z,1.83
2022-12-27T01:58:23.563Z,1.98
2022-12-27T02:00:54.886Z,1.52
2022-12-27T02:03:29.950Z,1.60
2022-12-27T02:06:03.242Z,2.05
2022-12-27T02:08:44.365Z,1.45
2022-12-27T02:11:15.611Z,1.65
2022-12-27T02:13:48.001Z,1.83
2022-12-27T02:16:20.491Z,1.23
2022-12-27T02:18:50.758Z,1.80
2022-12-27T02:22:08.087Z,1.48
2022-12-27T02:28:10.951Z,1.80
2022-12-27T02:30:45.087Z,1.38
2022-12-27T02:33:20.911Z,1.75
2022-12-27T02:35:55.521Z,1.98
2022-12-27T02:38:28.114Z,1.25
2022-12-27T02:41:17.237Z,1.58
2022-12-27T02:44:00.539Z,1.40
2022-12-27T02:46:50.671Z,1.23
2022-12-27T02:49:45.722Z,1.58
2022-12-27T02:52:46.896Z,1.70
2022-12-27T02:55:33.424Z,1.40
2022-12-27T02:58:14.734Z,3.20
2022-12-27T03:01:10.767Z,1.95
2022-12-27T03:03:57.371Z,1.25
2022-12-27T03:06:54.629Z,1.30
2022-12-27T03:10:24.601Z,1.55
2022-12-27T03:13:18.467Z,1.85
2022-12-27T03:16:11.186Z,1.95
2022-12-27T03:18:55.840Z,1.60
2022-12-27T03:21:55.609Z,0.90
2022-12-27T03:24:50.325Z,1.55
2022-12-27T03:27:28.718Z,1.80
2022-12-27T03:30:17.423Z,1.85
2022-12-27T03:33:08.857Z,1.65
2022-12-27T03:35:44.155Z,1.15
2022-12-27T03:38:14.396Z,1.77
2022-12-27T03:41:08.134Z,2.03
2022-12-27T03:43:40.932Z,1.70
2022-12-27T03:46:35.445Z,2.15
2022-12-27T03:49:16.930Z,1.98
2022-12-27T03:51:52.862Z,1.27
2022-12-27T03:54:27.429Z,2.20
2022-12-27T03:56:58.905Z,2.30
2022-12-27T03:59:28.694Z,1.02
2022-12-27T04:01:58.146Z,1.20
2022-12-27T04:04:27.306Z,1.30
2022-12-27T04:06:58.380Z,1.70
2022-12-27T04:09:45.510Z,1.50
2022-12-27T04:12:32.193Z,2.33
2022-12-27T04:15:18.562Z,1.52
2022-12-27T04:18:05.422Z,1.70
2022-12-27T04:20:52.561Z,1.27
2022-12-27T04:23:40.656Z,1.45
2022-12-27T04:26:26.964Z,1.92
2022-12-27T04:29:13.888Z,1.30
2022-12-27T04:32:00.252Z,2.35
2022-12-27T04:34:41.132Z,1.77
2022-12-27T04:37:11.809Z,2.47
2022-12-27T04:39:42.290Z,1.52
2022-12-27T04:42:29.708Z,1.88
2022-12-27T04:45:16.354Z,2.67
2022-12-27T04:48:02.712Z,1.63
2022-12-27T04:50:56.095Z,1.70
2022-12-27T04:53:42.603Z,1.45
2022-12-27T04:56:13.014Z,1.67
2022-12-27T04:59:01.999Z,2.88
2022-12-27T05:01:48.764Z,2.00
2022-12-27T05:04:18.030Z,1.73
2022-12-27T05:06:47.084Z,2.10
2022-12-27T05:09:33.717Z,1.60
2022-12-27T05:12:33.403Z,1.73
2022-12-27T05:15:02.518Z,2.80
2022-12-27T05:17:32.536Z,2.10
2022-12-27T05:20:01.648Z,1.95
2022-12-27T05:22:48.047Z,2.55
2022-12-27T05:25:34.530Z,1.80
2022-12-27T05:28:05.281Z,3.20
2022-12-27T05:30:35.154Z,1.60
2022-12-27T05:33:04.885Z,1.48
2022-12-27T05:35:34.862Z,1.85
2022-12-27T05:38:03.937Z,1.60
2022-12-27T05:40:33.131Z,1.70
2022-12-27T05:43:05.795Z,1.23
2022-12-27T05:45:35.195Z,1.83
2022-12-27T05:48:04.197Z,1.23
2022-12-27T05:50:33.984Z,1.65
2022-12-27T05:53:12.572Z,1.80
2022-12-27T05:55:42.103Z,2.20
2022-12-27T05:58:12.530Z,1.40
2022-12-27T06:00:41.632Z,1.70
2022-12-27T06:03:10.877Z,1.90
2022-12-27T06:05:40.031Z,1.33
2022-12-27T06:08:09.687Z,1.45
2022-12-27T06:10:38.993Z,1.88
2022-12-27T06:13:08.322Z,1.42
2022-12-27T06:15:38.636Z,1.92
2022-12-27T06:18:07.801Z,1.80
2022-12-27T06:20:36.752Z,2.30
2022-12-27T06:23:05.752Z,1.65
2022-12-27T06:25:34.786Z,1.75
2022-12-27T06:28:03.661Z,1.55
2022-12-27T06:30:36.150Z,1.77
2022-12-27T06:33:06.877Z,1.83
2022-12-27T06:35:35.912Z,1.30
2022-12-27T06:38:04.839Z,1.92
2022-12-27T06:40:33.885Z,1.25
2022-12-27T06:43:02.936Z,0.90
2022-12-27T06:45:33.398Z,1.52
2022-12-27T06:48:02.457Z,1.95
2022-12-27T06:50:33.162Z,1.77
2022-12-27T06:53:02.698Z,1.40
2022-12-27T06:55:31.613Z,1.40
2022-12-27T06:58:00.711Z,1.10
2022-12-27T07:00:29.683Z,1.75
2022-12-27T07:02:58.696Z,1.67
2022-12-27T07:05:27.725Z,2.47
2022-12-27T07:07:58.096Z,1.98
2022-12-27T07:10:27.263Z,2.20
2022-12-27T07:12:57.011Z,2.00
2022-12-27T07:15:26.301Z,1.95
2022-12-27T07:17:55.337Z,1.92
2022-12-27T07:20:25.414Z,1.50
2022-12-27T07:22:55.069Z,1.60
2022-12-27T07:25:25.658Z,1.95
2022-12-27T07:27:55.205Z,1.30
2022-12-27T07:30:24.375Z,1.15
2022-12-27T07:32:53.487Z,1.77
2022-12-27T07:35:22.384Z,1.75
2022-12-27T07:37:51.343Z,1.60
2022-12-27T07:40:20.371Z,1.25
2022-12-27T07:42:50.861Z,1.60
2022-12-27T07:45:20.114Z,1.50
2022-12-27T07:47:49.160Z,1.65
2022-12-27T07:50:18.253Z,1.50
2022-12-27T07:52:47.291Z,1.50
2022-12-27T07:55:16.411Z,1.35
2022-12-27T07:57:45.447Z,1.75
2022-12-27T08:00:16.818Z,1.83
2022-12-27T08:02:47.382Z,1.30
2022-12-27T08:05:16.425Z,1.33
2022-12-27T08:07:45.523Z,1.23
2022-12-27T08:10:14.541Z,2.22
2022-12-27T08:12:43.555Z,2.67
2022-12-27T08:15:15.121Z,1.70
2022-12-27T08:17:44.103Z,1.42
2022-12-27T08:20:15.945Z,1.95
2022-12-27T08:22:44.949Z,1.98
2022-12-27T08:25:13.889Z,1.98
2022-12-27T08:27:43.022Z,1.23
2022-12-27T08:30:14.804Z,1.88
2022-12-27T08:32:43.846Z,1.70
2022-12-27T08:35:50.199Z,2.47
2022-12-27T08:38:03.112Z,1.73
2022-12-27T08:40:32.189Z,2.45
2022-12-27T08:43:01.504Z,1.73
2022-12-27T08:45:31.858Z,2.15
2022-12-27T08:48:01.374Z,1.88
2022-12-27T08:50:31.082Z,1.80
2022-12-27T08:53:01.314Z,2.33
2022-12-27T08:55:30.962Z,2.22
2022-12-27T08:58:00.828Z,2.33
2022-12-27T09:00:31.991Z,1.83
2022-12-27T09:03:01.352Z,1.30
2022-12-27T09:05:30.388Z,2.30
2022-12-27T09:08:00.508Z,2.25
2022-12-27T09:10:29.519Z,2.17
2022-12-27T09:12:58.467Z,1.50
2022-12-27T09:15:27.539Z,1.95
2022-12-27T09:17:58.540Z,2.50
2022-12-27T09:20:28.724Z,2.00
2022-12-27T09:23:00.709Z,1.77
2022-12-27T09:25:34.692Z,2.83
2022-12-27T09:28:03.741Z,2.00
2022-12-27T09:30:32.762Z,2.13
2022-12-27T09:33:03.236Z,1.70
2022-12-27T09:35:36.933Z,2.17
2022-12-27T09:38:08.310Z,2.22
2022-12-27T09:40:38.173Z,2.00
2022-12-27T09:43:20.650Z,1.27
2022-12-27T09:45:55.375Z,1.67
2022-12-27T09:48:33.412Z,1.98
2022-12-27T09:51:07.826Z,1.88
2022-12-27T09:53:46.268Z,2.13
2022-12-27T09:56:40.940Z,1.75
2022-12-27T09:59:25.662Z,1.90
2022-12-27T10:01:54.910Z,1.65
2022-12-27T10:04:34.684Z,2.45
2022-12-27T10:07:22.709Z,2.97
2022-12-27T10:10:04.048Z,2.40
2022-12-27T10:12:50.641Z,3.75
2022-12-27T10:15:29.839Z,2.55
2022-12-27T10:18:11.473Z,2.05
2022-12-27T10:20:59.708Z,2.20
2022-12-27T10:23:32.209Z,2.20
2022-12-27T10:26:03.347Z,2.75
2022-12-27T10:28:39.254Z,2.25
2022-12-27T10:31:13.394Z,3.22
2022-12-27T10:33:43.808Z,2.55
2022-12-27T10:36:17.905Z,2.08
2022-12-27T10:38:47.025Z,1.95
2022-12-27T10:41:33.757Z,3.10
2022-12-27T10:44:02.948Z,2.67
2022-12-27T10:46:34.127Z,2.67
2022-12-27T10:49:22.402Z,3.63
2022-12-27T10:51:54.663Z,1.88
2022-12-27T10:54:27.073Z,2.03
2022-12-27T10:56:57.265Z,2.20
2022-12-27T10:59:27.921Z,2.97
2022-12-27T11:02:18.837Z,2.95
2022-12-27T11:05:03.181Z,2.50
2022-12-27T11:07:36.102Z,3.10
2022-12-27T11:10:16.917Z,2.70
2022-12-27T11:12:59.658Z,3.15
2022-12-27T11:15:30.271Z,2.45
2022-12-27T11:18:01.670Z,2.45
2022-12-27T11:20:33.709Z,2.90
2022-12-27T11:23:07.034Z,2.80
2022-12-27T11:25:37.701Z,2.10
2022-12-27T11:28:10.314Z,2.90
2022-12-27T11:30:42.458Z,3.00
2022-12-27T11:33:24.991Z,2.30
2022-12-27T11:35:57.028Z,2.70
2022-12-27T11:38:29.754Z,2.97
2022-12-27T11:41:04.333Z,2.65
2022-12-27T11:43:37.968Z,2.92
2022-12-27T11:46:20.641Z,4.00
2022-12-27T11:48:57.229Z,3.78
2022-12-27T11:51:55.978Z,2.58
2022-12-27T11:54:55.281Z,2.25
2022-12-27T11:57:41.204Z,2.40
2022-12-27T12:00:19.281Z,3.13
2022-12-27T12:03:15.266Z,2.45
2022-12-27T12:05:59.905Z,2.25
2022-12-27T12:08:53.184Z,3.67
2022-12-27T12:11:38.673Z,2.97
2022-12-27T12:14:39.168Z,3.10
2022-12-27T12:17:37.996Z,3.33
2022-12-27T12:20:34.382Z,2.50
2022-12-27T12:23:12.363Z,2.85
2022-12-27T12:26:02.558Z,2.72
2022-12-27T12:29:15.644Z,3.05
2022-12-27T12:31:58.979Z,2.50
2022-12-27T12:35:07.816Z,3.13
2022-12-27T12:38:02.950Z,3.13
2022-12-27T12:40:59.793Z,2.72
2022-12-27T12:43:53.050Z,2.90
2022-12-27T12:46:33.789Z,3.60
2022-12-27T12:49:50.966Z,2.50
2022-12-27T12:52:45.506Z,2.90
2022-12-27T12:55:38.458Z,2.75
2022-12-27T12:58:20.953Z,2.40
2022-12-27T13:01:07.522Z,3.10
2022-12-27T13:03:54.716Z,2.92
2022-12-27T13:06:58.748Z,2.38
2022-12-27T13:09:44.457Z,1.83
2022-12-27T13:12:19.831Z,2.90
2022-12-27T13:15:05.610Z,2.20
2022-12-27T13:17:42.407Z,2.97
2022-12-27T13:20:36.293Z,2.10
2022-12-27T13:23:14.522Z,2.50
2022-12-27T13:25:47.568Z,2.95
2022-12-27T13:28:32.249Z,1.92
2022-12-27T13:31:09.476Z,3.10
2022-12-27T13:33:49.619Z,2.60
2022-12-27T13:36:30.170Z,1.90
2022-12-27T13:39:21.484Z,2.53
2022-12-27T13:42:07.278Z,2.40
2022-12-27T13:44:56.112Z,3.17
2022-12-27T13:47:53.670Z,2.55
2022-12-27T13:50:47.440Z,2.60
2022-12-27T13:54:01.321Z,2.58
2022-12-27T13:59:53.928Z,2.22
2022-12-27T14:03:01.547Z,1.90
2022-12-27T14:06:02.955Z,2.08
2022-12-27T14:08:51.649Z,2.83
2022-12-27T14:11:35.707Z,2.25
2022-12-27T14:14:07.911Z,1.80
2022-12-27T14:16:59.118Z,3.40
2022-12-27T14:19:58.665Z,1.77
2022-12-27T14:22:53.975Z,2.33
2022-12-27T14:26:04.651Z,3.42
2022-12-27T14:29:15.591Z,2.70
2022-12-27T14:32:38.577Z,2.50
2022-12-27T14:35:36.815Z,5.25
2022-12-27T14:38:45.121Z,19.30
2022-12-27T14:42:05.991Z,7.40
2022-12-27T14:45:10.609Z,2.35
2022-12-27T14:48:10.024Z,2.42
2022-12-27T14:51:50.369Z,3.10
2022-12-27T14:54:42.898Z,2.75
2022-12-27T14:57:22.062Z,2.30
2022-12-27T14:59:59.739Z,2.90
2022-12-27T15:02:55.887Z,2.30
2022-12-27T15:05:40.201Z,5.57
2022-12-27T15:08:37.223Z,3.22
2022-12-27T15:11:27.461Z,2.53
2022-12-27T15:14:12.193Z,3.22
2022-12-27T15:16:56.225Z,3.45
2022-12-27T15:19:42.949Z,4.05
2022-12-27T15:22:22.409Z,2.83
2022-12-27T15:25:00.519Z,1.92
2022-12-27T15:27:34.895Z,2.78
2022-12-27T15:30:20.099Z,2.33
2022-12-27T15:33:00.779Z,3.05
2022-12-27T15:35:44.659Z,3.67
2022-12-27T15:38:16.481Z,3.35
2022-12-27T15:40:57.988Z,3.15
2022-12-27T15:43:47.938Z,4.00
2022-12-27T15:46:40.064Z,3.17
2022-12-27T15:49:36.477Z,4.05
2022-12-27T15:52:12.988Z,3.13
2022-12-27T15:55:10.196Z,2.42
2022-12-27T15:57:56.916Z,2.90
2022-12-27T16:00:33.966Z,4.00
2022-12-27T16:03:05.579Z,2.92
2022-12-27T16:05:53.259Z,1.90
2022-12-27T16:08:32.326Z,2.80
2022-12-27T16:11:02.776Z,3.22
2022-12-27T16:13:43.483Z,3.55
2022-12-27T16:16:29.360Z,3.50
2022-12-27T16:19:22.083Z,4.00
2022-12-27T16:21:53.838Z,3.63
2022-12-27T16:24:28.154Z,2.80
2022-12-27T16:27:00.644Z,3.05
2022-12-27T16:29:32.745Z,2.53
2022-12-27T16:32:18.246Z,2.58
2022-12-27T16:34:51.656Z,2.75
2022-12-27T16:37:45.114Z,3.13
2022-12-27T16:40:26.108Z,3.10
2022-12-27T16:43:32.173Z,3.10
2022-12-27T16:46:18.903Z,3.20
2022-12-27T16:49:18.234Z,2.80
2022-12-27T16:52:04.135Z,3.53
2022-12-27T16:54:50.801Z,3.20
2022-12-27T16:57:40.417Z,3.95
2022-12-27T17:00:37.797Z,2.88
2022-12-27T17:03:30.247Z,3.05
2022-12-27T17:09:32.446Z,3.65
2022-12-27T17:12:23.996Z,4.00
2022-12-27T17:15:02.369Z,3.22
2022-12-27T17:17:32.394Z,5.18
2022-12-27T17:20:06.392Z,12.27
2022-12-27T17:22:41.319Z,8.40
2022-12-27T17:25:17.442Z,3.05
2022-12-27T17:28:04.961Z,3.72
2022-12-27T17:30:48.018Z,3.63
2022-12-27T17:33:34.794Z,3.13
2022-12-27T17:36:22.314Z,4.05
2022-12-27T17:39:07.128Z,3.88
2022-12-27T17:42:05.162Z,3.30
2022-12-27T17:44:51.257Z,3.90
2022-12-27T17:47:37.460Z,3.13
2022-12-27T17:50:13.437Z,3.42
2022-12-27T17:52:59.916Z,4.38
2022-12-27T17:55:47.788Z,4.75
2022-12-27T17:58:17.818Z,6.32
2022-12-27T18:01:00.216Z,3.85
2022-12-27T18:03:33.824Z,4.60
2022-12-27T18:06:03.060Z,4.43
2022-12-27T18:08:34.191Z,4.78
2022-12-27T18:11:05.062Z,4.40
2022-12-27T18:13:38.300Z,4.60
2022-12-27T18:16:16.951Z,5.00
2022-12-27T18:18:49.758Z,3.90
2022-12-27T18:21:26.889Z,5.07
2022-12-27T18:23:56.879Z,4.57
2022-12-27T18:26:36.096Z,3.67
2022-12-27T18:29:05.715Z,4.50
2022-12-27T18:31:48.744Z,4.75
2022-12-27T18:34:26.666Z,4.60
2022-12-27T18:37:01.851Z,5.80
2022-12-27T18:39:33.290Z,5.38
2022-12-27T18:42:05.704Z,5.30
2022-12-27T18:44:43.785Z,5.38
2022-12-27T18:47:21.105Z,5.15
2022-12-27T18:49:56.235Z,7.78
2022-12-27T18:52:27.862Z,6.88
2022-12-27T18:55:01.591Z,22.52
2022-12-27T18:57:35.296Z,8.13
2022-12-27T19:00:17.888Z,5.85
2022-12-27T19:02:48.656Z,5.35
2022-12-27T19:05:27.780Z,5.90
2022-12-27T19:08:04.326Z,5.22
2022-12-27T19:10:37.148Z,4.18
2022-12-27T19:13:11.506Z,4.70
2022-12-27T19:15:48.756Z,5.43
2022-12-27T19:18:27.721Z,4.95
2022-12-27T19:21:00.865Z,5.85
2022-12-27T19:23:38.290Z,4.75
2022-12-27T19:26:27.443Z,5.35
2022-12-27T19:29:12.381Z,4.25
2022-12-27T19:31:48.661Z,4.78
2022-12-27T19:34:24.646Z,4.05
2022-12-27T19:37:03.545Z,4.78
2022-12-27T19:39:39.111Z,6.28
2022-12-27T19:42:16.566Z,5.47
2022-12-27T19:44:51.829Z,6.35
2022-12-27T19:47:23.689Z,6.18
2022-12-27T19:49:56.928Z,4.95
2022-12-27T19:52:32.758Z,5.90
2022-12-27T19:55:10.419Z,4.47
2022-12-27T19:57:42.998Z,5.20
2022-12-27T20:00:19.500Z,5.00
2022-12-27T20:02:51.796Z,5.13
2022-12-27T20:06:11.139Z,5.60
2022-12-27T20:08:26.855Z,5.35
2022-12-27T20:10:58.581Z,7.22
2022-12-27T20:13:32.472Z,7.10
2022-12-27T20:16:04.133Z,7.32
2022-12-27T20:18:36.366Z,7.95
2022-12-27T20:21:11.764Z,7.78
2022-12-27T20:23:42.311Z,9.13
2022-12-27T20:26:14.639Z,7.22
2022-12-27T20:28:48.444Z,5.00
2022-12-27T20:31:21.979Z,5.55
2022-12-27T20:33:57.280Z,6.30
2022-12-27T20:36:33.528Z,6.07
2022-12-27T20:39:11.905Z,5.30
2022-12-27T20:41:45.171Z,5.93
2022-12-27T20:44:20.823Z,5.55
2022-12-27T20:46:55.458Z,6.32
2022-12-27T20:49:27.961Z,3.55
2022-12-27T20:52:02.642Z,5.43
2022-12-27T20:54:35.585Z,5.60
2022-12-27T20:57:06.595Z,4.07
2022-12-27T20:59:39.127Z,4.50
2022-12-27T21:02:13.063Z,4.80
2022-12-27T21:04:45.893Z,4.22
2022-12-27T21:07:19.048Z,4.65
2022-12-27T21:09:56.125Z,4.72
2022-12-27T21:12:26.858Z,4.15
2022-12-27T21:14:57.720Z,3.90
2022-12-27T21:17:30.505Z,3.50
2022-12-27T21:20:04.171Z,4.78
2022-12-27T21:22:36.595Z,4.55
2022-12-27T21:25:10.675Z,3.05
2022-12-27T21:27:41.599Z,3.72
2022-12-27T21:30:14.784Z,4.32
2022-12-27T21:32:49.517Z,4.05
2022-12-27T21:35:19.450Z,4.38
2022-12-27T21:37:53.406Z,4.10
2022-12-27T21:40:25.176Z,5.65
2022-12-27T21:43:01.891Z,4.55
2022-12-27T21:45:30.961Z,4.38
2022-12-27T21:48:00.037Z,4.35
2022-12-27T21:50:32.509Z,4.28
2022-12-27T21:53:07.435Z,5.18
2022-12-27T21:55:36.593Z,3.75
2022-12-27T21:58:05.651Z,3.80
2022-12-27T22:00:34.715Z,3.10
2022-12-27T22:03:04.071Z,4.40
2022-12-27T22:05:33.351Z,5.38
2022-12-27T22:08:02.397Z,4.40
2022-12-27T22:10:32.949Z,4.75
2022-12-27T22:13:04.125Z,4.65
2022-12-27T22:15:33.311Z,3.22
2022-12-27T22:18:02.435Z,3.05
2022-12-27T22:20:31.504Z,3.40
2022-12-27T22:23:00.639Z,3.60
2022-12-27T22:25:31.202Z,3.33
2022-12-27T22:28:00.316Z,3.40
2022-12-27T22:30:29.463Z,5.95
2022-12-27T22:32:58.463Z,4.28
2022-12-27T22:35:27.461Z,2.97
2022-12-27T22:37:56.459Z,3.42
2022-12-27T22:40:40.995Z,3.72
2022-12-27T22:43:16.277Z,3.67
2022-12-27T22:45:48.935Z,3.38
2022-12-27T22:48:22.661Z,2.85
2022-12-27T22:50:51.835Z,3.33
2022-12-27T22:53:20.943Z,4.45
2022-12-27T22:55:49.982Z,3.70
2022-12-27T22:58:20.413Z,5.40
2022-12-27T23:00:49.407Z,4.30
2022-12-27T23:03:18.465Z,3.95
2022-12-27T23:05:56.562Z,3.67
2022-12-27T23:08:25.798Z,3.75
2022-12-27T23:10:54.944Z,2.78
2022-12-27T23:13:26.488Z,3.25
2022-12-27T23:15:58.851Z,2.63
2022-12-27T23:18:28.121Z,3.42
2022-12-27T23:21:21.723Z,3.28
2022-12-27T23:23:47.155Z,2.78
2022-12-27T23:26:17.672Z,2.45
2022-12-27T23:28:49.415Z,3.15
2022-12-27T23:31:19.590Z,3.15
2022-12-27T23:33:48.996Z,4.22
2022-12-27T23:36:18.037Z,4.30
2022-12-27T23:38:47.368Z,4.18
2022-12-27T23:41:18.106Z,2.78
2022-12-27T23:43:52.670Z,2.88
2022-12-27T23:46:26.764Z,3.70
2022-12-27T23:48:56.596Z,2.88
2022-12-27T23:51:26.018Z,3.60
2022-12-27T23:53:55.695Z,3.10
2022-12-27T23:56:26.409Z,3.00
2022-12-27T23:58:58.995Z,2.65
